地図

経路データ

SID SEASON NUMBER BASIN SUBBASIN NAME ISO_TIME NATURE LAT LON WMO_WIND WMO_PRES WMO_AGENCY TRACK_TYPE DIST2LAND LANDFALL IFLAG USA_AGENCY USA_ATCF_ID USA_LAT USA_LON USA_RECORD USA_STATUS USA_WIND USA_PRES USA_SSHS USA_R34_NE USA_R34_SE USA_R34_SW USA_R34_NW USA_R50_NE USA_R50_SE USA_R50_SW USA_R50_NW USA_R64_NE USA_R64_SE USA_R64_SW USA_R64_NW USA_POCI USA_ROCI USA_RMW USA_EYE TOKYO_LAT TOKYO_LON TOKYO_GRADE TOKYO_WIND TOKYO_PRES TOKYO_R50_DIR TOKYO_R50_LONG TOKYO_R50_SHORT TOKYO_R30_DIR TOKYO_R30_LONG TOKYO_R30_SHORT TOKYO_LAND CMA_LAT CMA_LON CMA_CAT CMA_WIND CMA_PRES HKO_LAT HKO_LON HKO_CAT HKO_WIND HKO_PRES NEWDELHI_LAT NEWDELHI_LON NEWDELHI_GRADE NEWDELHI_WIND NEWDELHI_PRES NEWDELHI_CI NEWDELHI_DP NEWDELHI_POCI REUNION_LAT REUNION_LON REUNION_TYPE REUNION_WIND REUNION_PRES REUNION_TNUM REUNION_CI REUNION_RMW REUNION_R34_NE REUNION_R34_SE REUNION_R34_SW REUNION_R34_NW REUNION_R50_NE REUNION_R50_SE REUNION_R50_SW REUNION_R50_NW REUNION_R64_NE REUNION_R64_SE REUNION_R64_SW REUNION_R64_NW BOM_LAT BOM_LON BOM_TYPE BOM_WIND BOM_PRES BOM_TNUM BOM_CI BOM_RMW BOM_R34_NE BOM_R34_SE BOM_R34_SW BOM_R34_NW BOM_R50_NE BOM_R50_SE BOM_R50_SW BOM_R50_NW BOM_R64_NE BOM_R64_SE BOM_R64_SW BOM_R64_NW BOM_ROCI BOM_POCI BOM_EYE BOM_POS_METHOD BOM_PRES_METHOD NADI_LAT NADI_LON NADI_CAT NADI_WIND NADI_PRES WELLINGTON_LAT WELLINGTON_LON WELLINGTON_WIND WELLINGTON_PRES DS824_LAT DS824_LON DS824_STAGE DS824_WIND DS824_PRES TD9636_LAT TD9636_LON TD9636_STAGE TD9636_WIND TD9636_PRES TD9635_LAT TD9635_LON TD9635_WIND TD9635_PRES TD9635_ROCI NEUMANN_LAT NEUMANN_LON NEUMANN_CLASS NEUMANN_WIND NEUMANN_PRES MLC_LAT MLC_LON MLC_CLASS MLC_WIND MLC_PRES USA_GUST BOM_GUST BOM_GUST_PER REUNION_GUST REUNION_GUST_PER USA_SEAHGT USA_SEARAD_NE USA_SEARAD_SE USA_SEARAD_SW USA_SEARAD_NW STORM_SPEED STORM_DIR
1941042S13072 1941 11 SI MM NOT_NAMED 1941-02-11 06:00:00 NR -12.7000 72.4000 reunion main 1772 1762 _____O________ -1 -12.7000 72.4000 99 9.90000 2 267
1941042S13072 1941 11 SI MM NOT_NAMED 1941-02-11 09:00:00 NR -12.7052 72.3094 main 1762 1753 _____P________ -1 -12.7052 72.3094 99 2 266
1941042S13072 1941 11 SI MM NOT_NAMED 1941-02-11 12:00:00 NR -12.7122 72.2155 main 1753 1744 _____P________ -1 -12.7122 72.2155 99 2 265
1941042S13072 1941 11 SI MM NOT_NAMED 1941-02-11 15:00:00 NR -12.7231 72.1151 main 1744 1734 _____P________ -1 -12.7231 72.1151 99 2 262
1941042S13072 1941 11 SI MM NOT_NAMED 1941-02-11 18:00:00 NR -12.7396 72.0049 main 1734 1719 _____P________ -1 -12.7396 72.0049 99 2 260
1941042S13072 1941 11 SI MM NOT_NAMED 1941-02-11 21:00:00 NR -12.7637 71.8815 main 1719 1710 _____P________ -1 -12.7637 71.8815 99 3 257
1941042S13072 1941 11 SI MM NOT_NAMED 1941-02-12 00:00:00 NR -12.7972 71.7418 main 1700 1691 _____P________ -1 -12.7972 71.7418 99 3 255
1941042S13072 1941 11 SI MM NOT_NAMED 1941-02-12 03:00:00 NR -12.8420 71.5824 main 1691 1667 _____P________ -1 -12.8420 71.5824 99 3 253
1941042S13072 1941 11 SI MM NOT_NAMED 1941-02-12 06:00:00 NR -12.9000 71.4000 reunion main 1667 1642 _____O________ -1 -12.9000 71.4000 99 9.90000 4 251
1941042S13072 1941 11 SI MM NOT_NAMED 1941-02-12 09:00:00 NR -12.9727 71.1926 main 1642 1618 _____P________ -1 -12.9727 71.1926 99 5 249
1941042S13072 1941 11 SI MM NOT_NAMED 1941-02-12 12:00:00 NR -13.0604 70.9636 main 1618 1584 _____P________ -1 -13.0604 70.9636 99 5 248
1941042S13072 1941 11 SI MM NOT_NAMED 1941-02-12 15:00:00 NR -13.1630 70.7178 main 1584 1560 _____P________ -1 -13.1630 70.7178 99 5 246
1941042S13072 1941 11 SI MM NOT_NAMED 1941-02-12 18:00:00 NR -13.2806 70.4597 main 1560 1526 _____P________ -1 -13.2806 70.4597 99 6 244
1941042S13072 1941 11 SI MM NOT_NAMED 1941-02-12 21:00:00 NR -13.4130 70.1942 main 1526 1487 _____P________ -1 -13.4130 70.1942 99 6 242
1941042S13072 1941 11 SI MM NOT_NAMED 1941-02-13 00:00:00 NR -13.5604 69.9259 main 1487 1463 _____P________ -1 -13.5604 69.9259 99 6 239
1941042S13072 1941 11 SI MM NOT_NAMED 1941-02-13 03:00:00 NR -13.7227 69.6596 main 1463 1423 _____P________ -1 -13.7227 69.6596 99 6 236
1941042S13072 1941 11 SI MM NOT_NAMED 1941-02-13 06:00:00 NR -13.9000 69.4000 reunion main 1423 1393 _____O________ -1 -13.9000 69.4000 99 9.90000 6 233
1941042S13072 1941 11 SI MM NOT_NAMED 1941-02-13 09:00:00 NR -14.0839 69.1581 main 1393 1354 _____P________ -1 -14.0839 69.1581 99 6 230
1941042S13072 1941 11 SI MM NOT_NAMED 1941-02-13 12:00:00 NR -14.2842 68.9194 main 1354 1324 _____P________ -1 -14.2842 68.9194 99 6 228
1941042S13072 1941 11 SI MM NOT_NAMED 1941-02-13 15:00:00 NR -14.4987 68.6848 main 1324 1295 _____P________ -1 -14.4987 68.6848 99 6 226
1941042S13072 1941 11 SI MM NOT_NAMED 1941-02-13 18:00:00 NR -14.7249 68.4550 main 1295 1255 _____P________ -1 -14.7249 68.4550 99 6 224
1941042S13072 1941 11 SI MM NOT_NAMED 1941-02-13 21:00:00 NR -14.9604 68.2309 main 1250 1221 _____P________ -1 -14.9604 68.2309 99 6 222
1941042S13072 1941 11 SI MM NOT_NAMED 1941-02-14 00:00:00 NR -15.2031 68.0131 main 1221 1191 _____P________ -1 -15.2031 68.0131 99 6 220
1941042S13072 1941 11 SI MM NOT_NAMED 1941-02-14 03:00:00 NR -15.4504 67.8025 main 1186 1156 _____P________ -1 -15.4504 67.8025 99 6 219
1941042S13072 1941 11 SI MM NOT_NAMED 1941-02-14 06:00:00 NR -15.7000 67.6000 reunion main 1156 1127 _____O________ -1 -15.7000 67.6000 99 9.90000 6 216
1941042S13072 1941 11 SI MM NOT_NAMED 1941-02-14 09:00:00 NR -15.9536 67.4194 main 1122 1102 _____P________ -1 -15.9536 67.4194 99 6 213
1941042S13072 1941 11 SI MM NOT_NAMED 1941-02-14 12:00:00 NR -16.2132 67.2489 main 1093 1069 _____P________ -1 -16.2132 67.2489 99 6 212
1941042S13072 1941 11 SI MM NOT_NAMED 1941-02-14 15:00:00 NR -16.4753 67.0844 main 1069 1040 _____P________ -1 -16.4753 67.0844 99 6 211
1941042S13072 1941 11 SI MM NOT_NAMED 1941-02-14 18:00:00 NR -16.7363 66.9215 main 1040 1017 _____P________ -1 -16.7363 66.9215 99 6 211
1941042S13072 1941 11 SI MM NOT_NAMED 1941-02-14 21:00:00 NR -16.9928 66.7559 main 1017 989 _____P________ -1 -16.9928 66.7559 99 6 213
1941042S13072 1941 11 SI MM NOT_NAMED 1941-02-15 00:00:00 NR -17.2413 66.5833 main 989 957 _____P________ -1 -17.2413 66.5833 99 6 215
1941042S13072 1941 11 SI MM NOT_NAMED 1941-02-15 03:00:00 NR -17.4782 66.3995 main 957 929 _____P________ -1 -17.4782 66.3995 99 6 218
1941042S13072 1941 11 SI MM NOT_NAMED 1941-02-15 06:00:00 NR -17.7000 66.2000 reunion main 929 902 _____O________ -1 -17.7000 66.2000 99 9.90000 6 224
1941042S13072 1941 11 SI MM NOT_NAMED 1941-02-15 09:00:00 NR -17.9009 65.9642 main 902 865 _____P________ -1 -17.9009 65.9642 99 6 230
1941042S13072 1941 11 SI MM NOT_NAMED 1941-02-15 12:00:00 NR -18.0878 65.7129 main 865 838 _____P________ -1 -18.0878 65.7129 99 6 234
1941042S13072 1941 11 SI MM NOT_NAMED 1941-02-15 15:00:00 NR -18.2622 65.4502 main 838 804 _____P________ -1 -18.2622 65.4502 99 6 236
1941042S13072 1941 11 SI MM NOT_NAMED 1941-02-15 18:00:00 NR -18.4255 65.1798 main 804 768 _____P________ -1 -18.4255 65.1798 99 6 238
1941042S13072 1941 11 SI MM NOT_NAMED 1941-02-15 21:00:00 NR -18.5793 64.9056 main 768 734 _____P________ -1 -18.5793 64.9056 99 6 240
1941042S13072 1941 11 SI MM NOT_NAMED 1941-02-16 00:00:00 NR -18.7253 64.6317 main 734 708 _____P________ -1 -18.7253 64.6317 99 6 241
1941042S13072 1941 11 SI MM NOT_NAMED 1941-02-16 03:00:00 NR -18.8650 64.3618 main 708 675 _____P________ -1 -18.8650 64.3618 99 6 241
1941042S13072 1941 11 SI MM NOT_NAMED 1941-02-16 06:00:00 NR -19.0000 64.1000 reunion main 675 652 _____O________ -1 -19.0000 64.1000 99 9.90000 5 245
1941042S13072 1941 11 SI MM NOT_NAMED 1941-02-16 09:00:00 NR -19.0831 63.8611 main 652 621 _____P________ -1 -19.0831 63.8611 99 5 251
1941042S13072 1941 11 SI MM NOT_NAMED 1941-02-16 12:00:00 NR -19.1533 63.6289 main 619 598 _____P________ -1 -19.1533 63.6289 99 5 252
1941042S13072 1941 11 SI MM NOT_NAMED 1941-02-16 15:00:00 NR -19.2229 63.4022 main 598 575 _____P________ -1 -19.2229 63.4022 99 5 250
1941042S13072 1941 11 SI MM NOT_NAMED 1941-02-16 18:00:00 NR -19.3044 63.1796 main 575 553 _____P________ -1 -19.3044 63.1796 99 5 246
1941042S13072 1941 11 SI MM NOT_NAMED 1941-02-16 21:00:00 NR -19.4104 62.9596 main 553 530 _____P________ -1 -19.4104 62.9596 99 5 239
1941042S13072 1941 11 SI MM NOT_NAMED 1941-02-17 00:00:00 NR -19.5534 62.7407 main 518 495 _____P________ -1 -19.5534 62.7407 99 5 231
1941042S13072 1941 11 SI MM NOT_NAMED 1941-02-17 03:00:00 NR -19.7457 62.5214 main 495 470 _____P________ -1 -19.7457 62.5214 99 6 223
1941042S13072 1941 11 SI MM NOT_NAMED 1941-02-17 06:00:00 NR -20.0000 62.3000 reunion main 470 437 _____O________ -1 -20.0000 62.3000 99 9.90000 8 217
1941042S13072 1941 11 SI MM NOT_NAMED 1941-02-17 09:00:00 NR -20.3590 62.0246 main 437 418 _____P________ -1 -20.3590 62.0246 99 9 214
1941042S13072 1941 11 SI MM NOT_NAMED 1941-02-17 12:00:00 NR -20.7799 61.7412 main 409 395 _____P________ -1 -20.7799 61.7412 99 10 211
1941042S13072 1941 11 SI MM NOT_NAMED 1941-02-17 15:00:00 NR -21.2500 61.4589 main 400 381 _____P________ -1 -21.2500 61.4589 99 11 208
1941042S13072 1941 11 SI MM NOT_NAMED 1941-02-17 18:00:00 NR -21.7568 61.1872 main 390 380 _____P________ -1 -21.7568 61.1872 99 12 205
1941042S13072 1941 11 SI MM NOT_NAMED 1941-02-17 21:00:00 NR -22.2877 60.9355 main 387 387 _____P________ -1 -22.2877 60.9355 99 12 202
1941042S13072 1941 11 SI MM NOT_NAMED 1941-02-18 00:00:00 NR -22.8301 60.7137 main 402 402 _____P________ -1 -22.8301 60.7137 99 12 199
1941042S13072 1941 11 SI MM NOT_NAMED 1941-02-18 03:00:00 NR -23.3717 60.5318 main 434 434 _____P________ -1 -23.3717 60.5318 99 11 195
1941042S13072 1941 11 SI MM NOT_NAMED 1941-02-18 06:00:00 NR -23.9000 60.4000 reunion main 470 470 _____O________ -1 -23.9000 60.4000 99 9.90000 10 190
1941042S13072 1941 11 SI MM NOT_NAMED 1941-02-18 09:00:00 NR -24.3880 60.3366 main 511 511 _____P________ -1 -24.3880 60.3366 99 10 184
1941042S13072 1941 11 SI MM NOT_NAMED 1941-02-18 12:00:00 NR -24.8730 60.3232 main 559 559 _____P________ -1 -24.8730 60.3232 99 10 179
1941042S13072 1941 11 SI MM NOT_NAMED 1941-02-18 15:00:00 NR -25.3511 60.3530 main 613 613 _____P________ -1 -25.3511 60.3530 99 10 175
1941042S13072 1941 11 SI MM NOT_NAMED 1941-02-18 18:00:00 NR -25.8184 60.4189 main 653 653 _____P________ -1 -25.8184 60.4189 99 9 171
1941042S13072 1941 11 SI MM NOT_NAMED 1941-02-18 21:00:00 NR -26.2710 60.5139 main 708 708 _____P________ -1 -26.2710 60.5139 99 9 168
1941042S13072 1941 11 SI MM NOT_NAMED 1941-02-19 00:00:00 NR -26.7048 60.6307 main 753 753 _____P________ -1 -26.7048 60.6307 99 9 165
1941042S13072 1941 11 SI MM NOT_NAMED 1941-02-19 03:00:00 NR -27.1158 60.7619 main 802 802 _____P________ -1 -27.1158 60.7619 99 8 163
1941042S13072 1941 11 SI MM NOT_NAMED 1941-02-19 06:00:00 NR -27.5000 60.9000 reunion main 846 846 _____O________ -1 -27.5000 60.9000 99 9.90000 8 163
1941042S13072 1941 11 SI MM NOT_NAMED 1941-02-19 09:00:00 NR -27.8728 61.0167 main 891 891 _____P________ -1 -27.8728 61.0167 99 8 163
1941042S13072 1941 11 SI MM NOT_NAMED 1941-02-19 12:00:00 NR -28.2213 61.1470 main 926 926 _____P________ -1 -28.2213 61.1470 99 7 161
1941042S13072 1941 11 SI MM NOT_NAMED 1941-02-19 15:00:00 NR -28.5454 61.2871 main 965 965 _____P________ -1 -28.5454 61.2871 99 7 158
1941042S13072 1941 11 SI MM NOT_NAMED 1941-02-19 18:00:00 NR -28.8451 61.4333 main 999 999 _____P________ -1 -28.8451 61.4333 99 6 156
1941042S13072 1941 11 SI MM NOT_NAMED 1941-02-19 21:00:00 NR -29.1205 61.5817 main 1038 1038 _____P________ -1 -29.1205 61.5817 99 6 154
1941042S13072 1941 11 SI MM NOT_NAMED 1941-02-20 00:00:00 NR -29.3714 61.7282 main 1072 1072 _____P________ -1 -29.3714 61.7282 99 5 152
1941042S13072 1941 11 SI MM NOT_NAMED 1941-02-20 03:00:00 NR -29.5979 61.8690 main 1100 1100 _____P________ -1 -29.5979 61.8690 99 5 151
1941042S13072 1941 11 SI MM NOT_NAMED 1941-02-20 06:00:00 NR -29.8000 62.0000 reunion main 1125 1125 _____O________ -1 -29.8000 62.0000 99 9.90000 4 151
1941042S13072 1941 11 SI MM NOT_NAMED 1941-02-20 09:00:00 NR -29.9782 62.1181 main 1149 1149 _____P________ -1 -29.9782 62.1181 99 4 150
1941042S13072 1941 11 SI MM NOT_NAMED 1941-02-20 12:00:00 NR -30.1352 62.2240 main 1163 1163 _____P________ -1 -30.1352 62.2240 99 3 150
1941042S13072 1941 11 SI MM NOT_NAMED 1941-02-20 15:00:00 NR -30.2739 62.3195 main 1187 1187 _____P________ -1 -30.2739 62.3195 99 3 149
1941042S13072 1941 11 SI MM NOT_NAMED 1941-02-20 18:00:00 NR -30.3973 62.4061 main 1201 1201 _____P________ -1 -30.3973 62.4061 99 3 149
1941042S13072 1941 11 SI MM NOT_NAMED 1941-02-20 21:00:00 NR -30.5087 62.4857 main 1216 1216 _____P________ -1 -30.5087 62.4857 99 3 149
1941042S13072 1941 11 SI MM NOT_NAMED 1941-02-21 00:00:00 NR -30.6108 62.5600 main 1230 1230 _____P________ -1 -30.6108 62.5600 99 2 148
1941042S13072 1941 11 SI MM NOT_NAMED 1941-02-21 03:00:00 NR -30.7070 62.6309 main 1240 1240 _____P________ -1 -30.7070 62.6309 99 2 148
1941042S13072 1941 11 SI MM NOT_NAMED 1941-02-21 06:00:00 NR -30.8000 62.7000 reunion main 1254 _____O________ -1 -30.8000 62.7000 99 9.90000 2 146

IBTrACS Databaseについて

本データベースは、米国NOAAが公開する1842年以降の世界の熱帯低気圧のベストトラックデータアーカイブInternational Best Track Archive for Climate Stewardship (IBTrACS)を、ウェブで閲覧しやすい形式に変換したものです。

最終更新日:2021-11-26